Terminal Aerodrome Forecast
Issued by NWS

Home | Current Version | Previous Version | Graphics & Text | Print | Product List | Glossary On
Versions: 1 2 3 4 5 6 7 8 9 10 11 12 13 14 15 16 17 18 19 20
000
FTUS43 KGRB 250245 AAB
TAFATW
TAF AMD
KATW 250245Z 2503/2524 27009G15KT P6SM VCSH SCT050 BKN060
      TEMPO 2503/2505 2SM TSRA BKN030CB
     FM251200 29007KT P6SM BKN045
     FM251700 29009KT P6SM BKN050=

USA.gov is the U.S. government's official web portal to all federal, state and local government web resources and services.